Time;durP1;ratioP1;P1;durP2;ratioP2;P2;SDS_P1;SDS_P2;PMS_P1;PMS_P2;Temp;Humidity;BMP_temperature;BMP_pressure;BME280_temperature;BME280_humidity;BME280_pressure;Samples;Min_cycle;Max_cycle;Signal;HPM_P1;HPM_P2
2022/10/18 00:00:08;;;;;;;56.67;31.63;;;;;;;;;;10475618;28;20408;-89
2022/10/18 00:05:10;;;;;;;59.42;32.55;;;;;;;;;;10478882;28;20477;-89
2022/10/18 00:10:14;;;;;;;55.95;30.98;;;;;;;;;;10478843;28;20967;-90
2022/10/18 00:15:16;;;;;;;56.92;31.23;;;;;;;;;;10478082;28;20767;-89
2022/10/18 00:20:18;;;;;;;54.10;31.27;;;;;;;;;;10473850;28;20420;-88
2022/10/18 00:25:21;;;;;;;53.83;30.90;;;;;;;;;;10477988;28;21090;-89
2022/10/18 00:30:24;;;;;;;57.90;31.45;;;;;;;;;;10477796;28;20406;-88
2022/10/18 00:35:26;;;;;;;48.47;28.73;;;;;;;;;;10475928;28;20497;-91
2022/10/18 00:40:29;;;;;;;46.73;28.07;;;;;;;;;;10473250;28;20488;-90
2022/10/18 00:45:31;;;;;;;47.55;27.58;;;;;;;;;;10474926;28;20418;-89
2022/10/18 00:50:35;;;;;;;48.90;27.27;;;;;;;;;;10475059;28;20434;-88
2022/10/18 00:55:39;;;;;;;48.00;27.00;;;;;;;;;;10475812;28;20481;-88
2022/10/18 01:00:40;;;;;;;43.93;25.50;;;;;;;;;;10474619;28;20404;-89
2022/10/18 01:05:46;;;;;;;45.25;26.13;;;;;;;;;;10474930;28;20484;-88
2022/10/18 01:10:58;;;;;;;45.92;25.25;;;;;;;;;;10466595;28;20412;-88
2022/10/18 01:16:12;;;;;;;41.53;24.38;;;;;;;;;;10478143;28;20508;-88
2022/10/18 01:21:22;;;;;;;41.60;24.70;;;;;;;;;;10477123;28;20464;-89
2022/10/18 01:26:38;;;;;;;40.93;23.87;;;;;;;;;;10474581;28;20500;-89
2022/10/18 01:31:46;;;;;;;41.67;23.52;;;;;;;;;;10477372;28;20808;-88
2022/10/18 01:36:51;;;;;;;40.47;24.00;;;;;;;;;;10477621;28;20861;-89
2022/10/18 01:41:55;;;;;;;41.17;24.67;;;;;;;;;;10477142;28;20402;-90
2022/10/18 01:46:59;;;;;;;39.80;24.20;;;;;;;;;;10479500;28;20406;-90
2022/10/18 01:52:01;;;;;;;38.13;22.33;;;;;;;;;;10486679;28;20406;-89
2022/10/18 01:57:09;;;;;;;39.92;23.08;;;;;;;;;;10486677;28;20417;-89
2022/10/18 02:02:22;;;;;;;37.88;23.33;;;;;;;;;;10485444;28;20481;-90
2022/10/18 02:07:29;;;;;;;36.45;21.85;;;;;;;;;;10481900;28;20420;-87
2022/10/18 02:12:33;;;;;;;40.90;24.37;;;;;;;;;;10485699;28;20410;-89
2022/10/18 02:17:38;;;;;;;39.58;23.17;;;;;;;;;;10484598;28;20429;-90
2022/10/18 02:22:42;;;;;;;38.75;23.25;;;;;;;;;;10481014;28;20485;-89
2022/10/18 02:27:44;;;;;;;41.23;24.60;;;;;;;;;;10485131;28;20406;-89
2022/10/18 02:32:52;;;;;;;39.00;23.58;;;;;;;;;;10485395;28;20430;-90
2022/10/18 02:37:56;;;;;;;45.15;25.45;;;;;;;;;;10482470;28;20525;-90
2022/10/18 02:42:59;;;;;;;59.42;31.13;;;;;;;;;;10481843;28;20774;-91
2022/10/18 02:48:02;;;;;;;167.82;59.35;;;;;;;;;;10484002;28;20481;-89
2022/10/18 02:53:04;;;;;;;86.07;38.20;;;;;;;;;;10481786;28;20937;-89
2022/10/18 02:58:06;;;;;;;37.87;22.07;;;;;;;;;;10478057;28;20895;-89
2022/10/18 03:03:09;;;;;;;42.50;23.80;;;;;;;;;;10480721;28;21280;-89
2022/10/18 03:08:11;;;;;;;34.03;20.25;;;;;;;;;;10480202;28;20509;-90
2022/10/18 03:13:13;;;;;;;34.60;20.27;;;;;;;;;;10478054;22;20523;-86
2022/10/18 03:18:16;;;;;;;42.13;23.17;;;;;;;;;;10424002;28;20420;-88
2022/10/18 03:23:18;;;;;;;36.47;21.80;;;;;;;;;;10433384;28;20492;-88
2022/10/18 03:28:21;;;;;;;33.00;20.35;;;;;;;;;;10427923;28;20496;-88
2022/10/18 03:33:24;;;;;;;36.15;20.20;;;;;;;;;;10429347;28;20409;-88
2022/10/18 03:38:26;;;;;;;33.15;20.17;;;;;;;;;;10412206;28;20456;-85
2022/10/18 03:43:28;;;;;;;34.35;19.80;;;;;;;;;;10397136;28;20568;-88
2022/10/18 03:48:31;;;;;;;33.43;20.17;;;;;;;;;;10432688;28;20540;-88
2022/10/18 03:53:33;;;;;;;33.47;19.50;;;;;;;;;;10429091;28;20819;-88
2022/10/18 03:58:35;;;;;;;33.20;20.00;;;;;;;;;;10424372;28;20429;-88
2022/10/18 04:03:38;;;;;;;33.22;19.77;;;;;;;;;;10433175;28;20543;-89
2022/10/18 04:08:40;;;;;;;33.03;19.10;;;;;;;;;;10431017;28;20501;-88
2022/10/18 04:13:41;;;;;;;30.08;19.20;;;;;;;;;;10425519;28;20418;-89
2022/10/18 04:18:45;;;;;;;34.25;20.05;;;;;;;;;;10422067;28;20403;-88
2022/10/18 04:23:47;;;;;;;32.78;19.73;;;;;;;;;;10420498;28;20984;-88
2022/10/18 04:28:49;;;;;;;27.88;18.30;;;;;;;;;;10422941;28;20492;-89
2022/10/18 04:33:54;;;;;;;30.27;18.60;;;;;;;;;;10423294;28;20642;-88
2022/10/18 04:38:55;;;;;;;29.83;18.58;;;;;;;;;;10422661;28;20408;-88
2022/10/18 04:43:57;;;;;;;29.73;19.10;;;;;;;;;;10414376;28;20514;-87
2022/10/18 04:49:01;;;;;;;31.00;19.10;;;;;;;;;;10418921;28;20496;-88
2022/10/18 04:54:02;;;;;;;28.55;17.90;;;;;;;;;;10407181;28;20429;-87
2022/10/18 04:59:04;;;;;;;29.00;18.02;;;;;;;;;;10390260;28;20905;-87
2022/10/18 05:04:08;;;;;;;32.35;20.00;;;;;;;;;;10388379;28;20403;-86
2022/10/18 05:09:10;;;;;;;30.63;19.15;;;;;;;;;;10395503;28;20499;-87
2022/10/18 05:14:12;;;;;;;34.00;20.05;;;;;;;;;;10384318;28;20427;-87
2022/10/18 05:19:18;;;;;;;30.85;18.95;;;;;;;;;;10388885;28;20409;-87
2022/10/18 05:24:20;;;;;;;29.65;18.40;;;;;;;;;;10395398;28;20442;-87
2022/10/18 05:29:21;;;;;;;33.08;19.17;;;;;;;;;;10391021;28;20951;-87
2022/10/18 05:34:26;;;;;;;35.75;20.63;;;;;;;;;;10414000;28;20536;-88
2022/10/18 05:39:27;;;;;;;37.50;20.48;;;;;;;;;;10407221;28;20417;-88
2022/10/18 05:44:29;;;;;;;36.97;21.77;;;;;;;;;;10422091;28;20842;-87
2022/10/18 05:49:33;;;;;;;34.53;20.60;;;;;;;;;;10430850;28;20508;-87
2022/10/18 05:54:34;;;;;;;32.17;19.37;;;;;;;;;;10439479;28;20415;-88
2022/10/18 05:59:36;;;;;;;33.75;18.83;;;;;;;;;;10438755;28;20947;-88
2022/10/18 06:04:39;;;;;;;37.30;21.15;;;;;;;;;;10435037;28;20419;-87
2022/10/18 06:09:41;;;;;;;35.22;20.35;;;;;;;;;;10433386;28;20895;-88
2022/10/18 06:14:43;;;;;;;42.28;22.95;;;;;;;;;;10426298;28;20421;-86
2022/10/18 06:19:46;;;;;;;44.95;23.10;;;;;;;;;;10428340;28;20420;-87
2022/10/18 06:24:48;;;;;;;61.83;30.57;;;;;;;;;;10430562;28;20895;-88
2022/10/18 06:29:50;;;;;;;76.68;37.25;;;;;;;;;;10424608;28;20435;-88
2022/10/18 06:34:53;;;;;;;109.18;47.65;;;;;;;;;;10412229;28;20910;-88
2022/10/18 06:39:55;;;;;;;99.70;41.88;;;;;;;;;;10419138;28;20816;-88
2022/10/18 06:44:57;;;;;;;78.35;37.45;;;;;;;;;;10423935;28;20495;-88
2022/10/18 06:50:00;;;;;;;82.03;37.00;;;;;;;;;;10426253;28;20407;-87
2022/10/18 06:55:03;;;;;;;63.58;31.13;;;;;;;;;;10430650;28;20952;-88
2022/10/18 07:00:05;;;;;;;45.08;25.33;;;;;;;;;;10418407;28;20745;-88
2022/10/18 07:05:09;;;;;;;43.80;24.83;;;;;;;;;;10411278;28;20497;-87
2022/10/18 07:10:11;;;;;;;47.07;25.20;;;;;;;;;;10394872;28;20486;-88
2022/10/18 07:15:13;;;;;;;41.30;22.85;;;;;;;;;;10393525;28;20455;-87
2022/10/18 07:20:17;;;;;;;35.95;20.85;;;;;;;;;;10392942;28;20487;-87
2022/10/18 07:25:19;;;;;;;35.30;20.30;;;;;;;;;;10391302;28;20839;-88
2022/10/18 07:30:22;;;;;;;34.93;19.37;;;;;;;;;;10399862;28;20714;-88
2022/10/18 07:35:25;;;;;;;34.88;20.05;;;;;;;;;;10395189;28;20500;-88
2022/10/18 07:40:27;;;;;;;37.58;20.38;;;;;;;;;;10397312;28;20403;-87
2022/10/18 07:45:30;;;;;;;34.55;19.60;;;;;;;;;;10400377;28;20394;-88
2022/10/18 07:50:33;;;;;;;33.00;19.35;;;;;;;;;;10399475;28;20522;-88
2022/10/18 07:55:35;;;;;;;33.30;19.15;;;;;;;;;;10389029;28;20458;-88
2022/10/18 08:00:37;;;;;;;29.60;18.83;;;;;;;;;;10395087;28;20488;-88
2022/10/18 08:05:41;;;;;;;34.85;19.50;;;;;;;;;;10386111;28;20417;-88
2022/10/18 08:10:43;;;;;;;33.22;18.85;;;;;;;;;;10394952;28;20934;-88
2022/10/18 08:15:44;;;;;;;31.27;18.40;;;;;;;;;;10393059;28;20424;-88
2022/10/18 08:20:48;;;;;;;30.70;18.27;;;;;;;;;;10395634;28;20403;-88
2022/10/18 08:25:50;;;;;;;32.20;19.57;;;;;;;;;;10397586;28;20977;-88
2022/10/18 08:30:51;;;;;;;33.13;20.07;;;;;;;;;;10383859;28;20483;-88
2022/10/18 08:35:59;;;;;;;30.77;19.33;;;;;;;;;;10398086;28;20422;-88
2022/10/18 08:41:13;;;;;;;32.75;19.23;;;;;;;;;;10400054;28;20424;-88
2022/10/18 08:46:15;;;;;;;30.65;19.30;;;;;;;;;;10404278;28;20523;-88
2022/10/18 08:51:27;;;;;;;33.77;18.73;;;;;;;;;;10402565;28;20440;-88
2022/10/18 08:56:29;;;;;;;32.17;18.80;;;;;;;;;;10420121;28;20514;-88
2022/10/18 09:01:46;;;;;;;33.45;19.42;;;;;;;;;;10422137;28;20403;-88
2022/10/18 09:06:57;;;;;;;36.53;19.05;;;;;;;;;;10420704;28;20411;-88
2022/10/18 09:12:09;;;;;;;30.30;18.75;;;;;;;;;;10430108;28;20398;-88
2022/10/18 09:17:20;;;;;;;29.25;18.70;;;;;;;;;;10420115;28;20430;-88
2022/10/18 09:22:32;;;;;;;28.50;18.00;;;;;;;;;;10421853;28;20421;-89
2022/10/18 09:27:42;;;;;;;28.77;17.80;;;;;;;;;;10428993;28;21156;-88
2022/10/18 09:32:51;;;;;;;29.20;16.92;;;;;;;;;;10416265;28;20422;-88
2022/10/18 09:38:03;;;;;;;28.67;16.73;;;;;;;;;;10408221;28;20522;-88
2022/10/18 09:43:11;;;;;;;26.40;15.83;;;;;;;;;;10411601;28;20411;-88
2022/10/18 09:48:20;;;;;;;27.02;16.40;;;;;;;;;;10397861;28;20407;-88
2022/10/18 09:53:35;;;;;;;27.13;16.50;;;;;;;;;;10399608;28;20410;-88
2022/10/18 09:58:44;;;;;;;26.77;15.93;;;;;;;;;;10397490;28;20423;-88
2022/10/18 10:03:48;;;;;;;23.83;15.73;;;;;;;;;;10400848;28;20410;-88
2022/10/18 10:09:08;;;;;;;26.25;15.00;;;;;;;;;;10395609;28;20885;-89
2022/10/18 10:14:21;;;;;;;26.93;15.40;;;;;;;;;;10391507;28;20418;-89
2022/10/18 10:19:34;;;;;;;24.77;14.80;;;;;;;;;;10393093;28;20988;-88
2022/10/18 10:24:50;;;;;;;23.87;14.43;;;;;;;;;;10401855;28;20403;-88
2022/10/18 10:30:00;;;;;;;24.38;15.32;;;;;;;;;;10392539;28;20889;-88
2022/10/18 10:35:24;;;;;;;23.27;15.37;;;;;;;;;;10403311;28;20420;-88
2022/10/18 10:40:32;;;;;;;21.92;14.75;;;;;;;;;;10416758;28;20431;-88
2022/10/18 10:45:40;;;;;;;24.17;15.48;;;;;;;;;;10420259;28;20764;-87
2022/10/18 10:50:59;;;;;;;24.20;14.82;;;;;;;;;;10425031;28;20438;-88
2022/10/18 10:56:07;;;;;;;23.63;14.43;;;;;;;;;;10406035;28;20423;-88
2022/10/18 11:01:37;;;;;;;24.10;14.77;;;;;;;;;;10417920;28;20509;-88
2022/10/18 11:06:53;;;;;;;21.80;14.55;;;;;;;;;;10370936;28;20418;-88
2022/10/18 11:12:26;;;;;;;23.05;14.07;;;;;;;;;;10410915;28;20399;-88
2022/10/18 11:17:38;;;;;;;21.88;13.98;;;;;;;;;;10399243;28;20462;-88
2022/10/18 11:22:48;;;;;;;24.02;14.20;;;;;;;;;;10388520;28;20422;-88
2022/10/18 11:28:01;;;;;;;22.53;14.50;;;;;;;;;;10395756;28;20834;-88
2022/10/18 11:33:16;;;;;;;23.02;15.07;;;;;;;;;;10392978;28;20480;-89
2022/10/18 11:38:31;;;;;;;24.27;15.75;;;;;;;;;;10390528;28;20506;-89
2022/10/18 11:43:42;;;;;;;25.33;15.13;;;;;;;;;;10391100;28;20470;-88
2022/10/18 11:49:03;;;;;;;24.90;16.00;;;;;;;;;;10388133;28;20494;-88
2022/10/18 11:54:21;;;;;;;27.27;14.80;;;;;;;;;;10372337;28;20473;-88
2022/10/18 11:59:32;;;;;;;23.45;15.90;;;;;;;;;;10373141;28;20428;-89
2022/10/18 12:04:37;;;;;;;24.15;16.55;;;;;;;;;;10381312;28;20412;-89
2022/10/18 12:09:41;;;;;;;25.20;16.75;;;;;;;;;;10378999;28;20527;-88
2022/10/18 12:14:49;;;;;;;25.40;16.17;;;;;;;;;;10382501;28;20954;-88
2022/10/18 12:19:54;;;;;;;25.05;15.52;;;;;;;;;;10382782;28;20433;-88
2022/10/18 12:24:56;;;;;;;23.55;15.95;;;;;;;;;;10384223;28;20411;-89
2022/10/18 12:30:03;;;;;;;25.93;16.00;;;;;;;;;;10393897;28;20492;-89
2022/10/18 12:35:11;;;;;;;22.48;15.88;;;;;;;;;;10390655;28;20486;-88
2022/10/18 12:40:17;;;;;;;23.70;16.10;;;;;;;;;;10388689;28;20425;-89
2022/10/18 12:45:28;;;;;;;24.93;15.97;;;;;;;;;;10379771;28;20502;-87
2022/10/18 12:50:34;;;;;;;23.40;15.90;;;;;;;;;;10389506;28;20807;-88
2022/10/18 12:55:37;;;;;;;24.83;16.30;;;;;;;;;;10386273;28;20875;-88
2022/10/18 13:00:54;;;;;;;24.42;15.52;;;;;;;;;;10378913;28;20938;-87
2022/10/18 13:05:59;;;;;;;22.25;15.25;;;;;;;;;;10375564;28;20438;-87
2022/10/18 13:11:41;;;;;;;23.03;15.80;;;;;;;;;;10374696;28;20962;-88
2022/10/18 13:16:49;;;;;;;22.65;15.35;;;;;;;;;;10346645;28;20854;-88
2022/10/18 13:22:05;;;;;;;27.50;15.57;;;;;;;;;;10414060;28;20401;-88
2022/10/18 13:27:28;;;;;;;22.58;15.82;;;;;;;;;;10408612;28;20896;-88
2022/10/18 13:32:39;;;;;;;21.80;14.57;;;;;;;;;;10412833;28;20467;-87
2022/10/18 13:37:41;;;;;;;23.98;16.42;;;;;;;;;;10417033;28;20428;-88
2022/10/18 13:42:43;;;;;;;28.00;17.77;;;;;;;;;;10416630;28;20439;-88
2022/10/18 13:47:46;;;;;;;25.10;16.95;;;;;;;;;;10423693;28;20483;-88
2022/10/18 13:53:19;;;;;;;24.05;16.08;;;;;;;;;;10428064;28;20485;-88
2022/10/18 13:58:29;;;;;;;22.13;15.27;;;;;;;;;;10419341;28;20449;-87
2022/10/18 14:03:45;;;;;;;24.23;15.50;;;;;;;;;;10425098;28;20850;-87
2022/10/18 14:08:53;;;;;;;24.17;16.13;;;;;;;;;;10424028;28;20943;-88
2022/10/18 14:14:03;;;;;;;24.05;15.05;;;;;;;;;;10415363;28;20501;-87
2022/10/18 14:19:17;;;;;;;24.73;15.20;;;;;;;;;;10418576;28;20518;-87
2022/10/18 14:24:22;;;;;;;24.30;15.52;;;;;;;;;;10423108;28;20404;-88
2022/10/18 14:29:24;;;;;;;22.93;15.30;;;;;;;;;;10427991;28;20405;-88
2022/10/18 14:34:27;;;;;;;23.35;14.63;;;;;;;;;;10418459;28;20511;-88
2022/10/18 14:39:29;;;;;;;26.57;16.80;;;;;;;;;;10392174;28;20515;-88
2022/10/18 14:44:33;;;;;;;26.52;16.73;;;;;;;;;;10390390;28;20945;-88
2022/10/18 14:49:42;;;;;;;25.48;16.90;;;;;;;;;;10400483;28;20407;-88
2022/10/18 14:54:45;;;;;;;26.40;17.30;;;;;;;;;;10411102;28;20479;-88
2022/10/18 14:59:51;;;;;;;28.13;17.83;;;;;;;;;;10416830;28;20526;-87
2022/10/18 15:05:00;;;;;;;28.20;18.35;;;;;;;;;;10420831;28;20420;-88
2022/10/18 15:10:04;;;;;;;28.73;17.10;;;;;;;;;;10424869;28;20427;-88
2022/10/18 15:15:14;;;;;;;27.02;18.05;;;;;;;;;;10420816;28;20506;-88
2022/10/18 15:20:23;;;;;;;32.00;17.90;;;;;;;;;;10407027;28;20906;-86
2022/10/18 15:25:29;;;;;;;31.85;18.30;;;;;;;;;;10408513;28;20490;-88
2022/10/18 15:30:41;;;;;;;31.20;18.17;;;;;;;;;;10410362;28;20421;-87
2022/10/18 15:35:44;;;;;;;29.07;17.47;;;;;;;;;;10396539;28;20491;-86
2022/10/18 15:40:46;;;;;;;29.13;17.13;;;;;;;;;;10397441;28;20506;-87
2022/10/18 15:45:48;;;;;;;37.17;18.13;;;;;;;;;;10395547;28;20510;-87
2022/10/18 15:50:54;;;;;;;28.90;17.60;;;;;;;;;;10402866;28;20849;-88
2022/10/18 15:55:58;;;;;;;45.42;18.45;;;;;;;;;;10404616;28;20421;-87
2022/10/18 16:01:03;;;;;;;28.90;17.77;;;;;;;;;;10423584;28;20449;-86
2022/10/18 16:06:08;;;;;;;27.45;17.48;;;;;;;;;;10414059;28;20417;-87
2022/10/18 16:11:14;;;;;;;28.80;17.27;;;;;;;;;;10413022;28;20486;-87
2022/10/18 16:16:19;;;;;;;30.23;17.55;;;;;;;;;;10421160;28;20407;-87
2022/10/18 16:21:25;;;;;;;29.70;16.80;;;;;;;;;;10424004;28;20405;-87
2022/10/18 16:26:28;;;;;;;28.80;16.90;;;;;;;;;;10421043;28;20427;-87
2022/10/18 16:31:32;;;;;;;29.50;16.77;;;;;;;;;;10424857;28;20838;-87
2022/10/18 16:36:35;;;;;;;35.70;19.57;;;;;;;;;;10423476;28;20411;-88
2022/10/18 16:41:37;;;;;;;34.33;20.17;;;;;;;;;;10407544;28;20833;-88
2022/10/18 16:46:39;;;;;;;43.70;24.35;;;;;;;;;;10413437;28;20509;-87
2022/10/18 16:51:42;;;;;;;41.95;23.98;;;;;;;;;;10409686;28;21442;-86
2022/10/18 16:56:46;;;;;;;51.08;28.60;;;;;;;;;;10414981;28;20545;-88
2022/10/18 17:01:48;;;;;;;53.30;29.73;;;;;;;;;;10408902;28;20419;-86
2022/10/18 17:06:53;;;;;;;159.15;36.90;;;;;;;;;;10404822;28;21144;-86
2022/10/18 17:11:54;;;;;;;57.67;31.45;;;;;;;;;;10415721;28;20813;-88
2022/10/18 17:16:56;;;;;;;61.90;31.92;;;;;;;;;;10412322;28;20476;-87
2022/10/18 17:22:00;;;;;;;59.22;31.10;;;;;;;;;;10423731;28;20411;-88
2022/10/18 17:27:02;;;;;;;57.90;32.07;;;;;;;;;;10422571;28;20740;-87
2022/10/18 17:32:04;;;;;;;90.17;33.07;;;;;;;;;;10411684;28;20874;-88
2022/10/18 17:37:07;;;;;;;61.23;33.27;;;;;;;;;;10413379;28;20423;-88
2022/10/18 17:42:10;;;;;;;62.50;32.27;;;;;;;;;;10408918;28;20504;-86
2022/10/18 17:47:11;;;;;;;62.97;32.00;;;;;;;;;;10404442;28;20527;-87
2022/10/18 17:52:15;;;;;;;60.15;33.30;;;;;;;;;;10408520;28;20837;-88
2022/10/18 17:57:17;;;;;;;62.92;34.03;;;;;;;;;;10403282;28;20958;-87
2022/10/18 18:02:19;;;;;;;64.53;33.60;;;;;;;;;;10391974;28;20447;-88
2022/10/18 18:07:22;;;;;;;64.63;33.43;;;;;;;;;;10400551;28;20418;-88
2022/10/18 18:12:24;;;;;;;69.97;35.77;;;;;;;;;;10398918;28;20413;-88
2022/10/18 18:17:27;;;;;;;61.35;34.25;;;;;;;;;;10401673;28;20452;-87
2022/10/18 18:22:30;;;;;;;70.37;33.93;;;;;;;;;;10417098;28;20433;-88
2022/10/18 18:27:32;;;;;;;63.20;34.65;;;;;;;;;;10390712;28;20416;-87
2022/10/18 18:32:33;;;;;;;65.78;35.67;;;;;;;;;;10406520;28;20407;-88
2022/10/18 18:37:37;;;;;;;66.70;35.75;;;;;;;;;;10374867;28;20427;-86
2022/10/18 18:42:39;;;;;;;68.30;35.30;;;;;;;;;;10367024;28;20418;-87
2022/10/18 18:47:40;;;;;;;71.23;35.43;;;;;;;;;;10372742;28;20417;-86
2022/10/18 18:52:44;;;;;;;65.67;34.67;;;;;;;;;;10386201;28;20437;-87
2022/10/18 18:57:46;;;;;;;65.25;33.65;;;;;;;;;;10394567;28;20421;-87
2022/10/18 19:02:47;;;;;;;68.88;35.47;;;;;;;;;;10390672;28;20417;-86
2022/10/18 19:07:51;;;;;;;65.97;35.03;;;;;;;;;;10387773;28;20423;-86
2022/10/18 19:12:52;;;;;;;65.40;34.75;;;;;;;;;;10388151;28;20418;-86
2022/10/18 19:17:55;;;;;;;67.47;34.08;;;;;;;;;;10378892;28;20459;-86
2022/10/18 19:22:59;;;;;;;65.18;34.20;;;;;;;;;;10383824;28;20415;-89
2022/10/18 19:28:01;;;;;;;62.00;33.60;;;;;;;;;;10391134;28;20512;-88
2022/10/18 19:33:03;;;;;;;65.88;34.58;;;;;;;;;;10395004;28;20504;-88
2022/10/18 19:38:06;;;;;;;62.73;33.83;;;;;;;;;;10390520;28;20412;-87
2022/10/18 19:43:08;;;;;;;58.97;33.63;;;;;;;;;;10382724;28;20865;-87
2022/10/18 19:48:10;;;;;;;58.17;33.13;;;;;;;;;;10385593;28;20467;-90
2022/10/18 19:53:14;;;;;;;59.40;32.58;;;;;;;;;;10394668;28;20428;-87
2022/10/18 19:58:15;;;;;;;62.15;34.20;;;;;;;;;;10383950;28;20667;-88
2022/10/18 20:03:17;;;;;;;61.95;33.03;;;;;;;;;;10384591;28;20498;-89
2022/10/18 20:08:20;;;;;;;59.80;32.92;;;;;;;;;;10377762;28;20429;-88
2022/10/18 20:13:22;;;;;;;57.35;32.30;;;;;;;;;;10381235;28;20915;-89
2022/10/18 20:18:24;;;;;;;71.88;34.78;;;;;;;;;;10385880;28;20909;-87
2022/10/18 20:23:28;;;;;;;64.63;34.13;;;;;;;;;;10395220;28;20414;-88
2022/10/18 20:28:30;;;;;;;58.55;32.75;;;;;;;;;;10382024;28;20412;-88
2022/10/18 20:33:33;;;;;;;65.03;34.78;;;;;;;;;;10376840;28;20427;-89
2022/10/18 20:38:38;;;;;;;63.95;33.70;;;;;;;;;;10375425;28;20518;-89
2022/10/18 20:43:40;;;;;;;66.43;33.75;;;;;;;;;;10388252;28;20502;-88
2022/10/18 20:48:42;;;;;;;56.05;32.30;;;;;;;;;;10376845;28;20415;-88
2022/10/18 20:53:46;;;;;;;60.63;33.30;;;;;;;;;;10382581;28;20523;-88
2022/10/18 20:58:50;;;;;;;64.30;33.27;;;;;;;;;;10393109;28;20496;-88
2022/10/18 21:03:54;;;;;;;56.42;32.70;;;;;;;;;;10384393;28;21269;-87
2022/10/18 21:08:59;;;;;;;57.40;30.55;;;;;;;;;;10384778;28;20403;-89
2022/10/18 21:14:02;;;;;;;56.50;30.40;;;;;;;;;;10394291;28;20824;-89
2022/10/18 21:19:05;;;;;;;52.28;30.92;;;;;;;;;;10378247;28;20427;-87
2022/10/18 21:24:08;;;;;;;53.92;30.10;;;;;;;;;;10380411;28;20895;-88
2022/10/18 21:29:11;;;;;;;51.47;29.90;;;;;;;;;;10380054;28;20502;-86
2022/10/18 21:34:15;;;;;;;52.08;29.77;;;;;;;;;;10379262;28;20505;-89
2022/10/18 21:39:21;;;;;;;49.83;28.70;;;;;;;;;;10379668;28;20785;-89
2022/10/18 21:44:23;;;;;;;52.40;29.38;;;;;;;;;;10382125;28;20417;-87
2022/10/18 21:49:27;;;;;;;50.38;28.63;;;;;;;;;;10381938;28;20920;-87
2022/10/18 21:54:31;;;;;;;51.80;28.90;;;;;;;;;;10389819;28;20491;-88
2022/10/18 21:59:33;;;;;;;50.33;29.35;;;;;;;;;;10383815;28;21068;-87
2022/10/18 22:04:35;;;;;;;51.88;28.85;;;;;;;;;;10375813;28;20770;-89
2022/10/18 22:09:38;;;;;;;49.67;28.63;;;;;;;;;;10387661;28;20494;-89
2022/10/18 22:14:40;;;;;;;47.40;28.33;;;;;;;;;;10392417;28;20715;-87
2022/10/18 22:19:42;;;;;;;52.27;30.70;;;;;;;;;;10386329;28;20434;-89
2022/10/18 22:24:45;;;;;;;54.75;29.38;;;;;;;;;;10398696;28;20749;-88
2022/10/18 22:29:47;;;;;;;54.47;30.10;;;;;;;;;;10392937;28;20486;-87
2022/10/18 22:34:49;;;;;;;53.38;28.70;;;;;;;;;;10397124;28;20409;-89
2022/10/18 22:39:52;;;;;;;49.75;28.25;;;;;;;;;;10396292;28;20425;-87
2022/10/18 22:44:54;;;;;;;53.43;29.80;;;;;;;;;;10397470;28;20826;-89
2022/10/18 22:49:56;;;;;;;51.05;29.33;;;;;;;;;;10421891;28;20495;-87
2022/10/18 22:55:03;;;;;;;51.78;28.92;;;;;;;;;;10418711;28;21329;-86
2022/10/18 23:00:06;;;;;;;51.27;29.27;;;;;;;;;;10414267;28;20492;-87
2022/10/18 23:05:08;;;;;;;59.85;32.95;;;;;;;;;;10426151;28;20559;-87
2022/10/18 23:10:12;;;;;;;60.58;33.78;;;;;;;;;;10418102;28;20984;-89
2022/10/18 23:15:13;;;;;;;59.05;32.25;;;;;;;;;;10415902;28;20504;-88
2022/10/18 23:20:16;;;;;;;58.72;32.70;;;;;;;;;;10428254;28;20415;-87
2022/10/18 23:25:19;;;;;;;72.30;31.73;;;;;;;;;;10432394;28;20494;-87
2022/10/18 23:30:21;;;;;;;58.40;31.87;;;;;;;;;;10434328;28;20490;-86
2022/10/18 23:35:23;;;;;;;56.60;31.25;;;;;;;;;;10431633;28;20404;-89
2022/10/18 23:40:26;;;;;;;55.17;30.45;;;;;;;;;;10427587;28;20425;-89
2022/10/18 23:45:28;;;;;;;55.90;30.70;;;;;;;;;;10428651;28;20486;-87
2022/10/18 23:50:30;;;;;;;57.30;29.77;;;;;;;;;;10424649;28;20492;-86
2022/10/18 23:55:33;;;;;;;54.70;29.48;;;;;;;;;;10423838;28;20925;-88
